Time;durP1;ratioP1;P1;durP2;ratioP2;P2;SDS_P1;SDS_P2;PMS_P1;PMS_P2;Temp;Humidity;BMP_temperature;BMP_pressure;BME280_temperature;BME280_humidity;BME280_pressure;Samples;Min_cycle;Max_cycle;Signal;HPM_P1;HPM_P2
2022/01/19 00:00:51;;;;;;;12.27;5.83;;;;;;;-1.90;79.16;95994.91;5104598;28;20354;-76
2022/01/19 00:03:19;;;;;;;16.10;6.90;;;;;;;-1.87;79.20;95997.25;5111790;27;20200;-75
2022/01/19 00:05:49;;;;;;;13.37;5.77;;;;;;;-1.87;78.96;95997.25;5106638;28;20204;-79
2022/01/19 00:08:21;;;;;;;10.53;5.50;;;;;;;-1.86;78.61;96002.25;5105929;28;20253;-78
2022/01/19 00:10:51;;;;;;;12.50;5.87;;;;;;;-1.85;78.30;95992.88;5105220;28;20216;-78
2022/01/19 00:13:20;;;;;;;15.97;5.90;;;;;;;-1.89;78.01;96001.63;5104926;28;20206;-78
2022/01/19 00:15:48;;;;;;;15.80;6.50;;;;;;;-1.83;77.82;96006.31;5111692;28;20287;-78
2022/01/19 00:18:19;;;;;;;11.60;6.20;;;;;;;-1.81;77.51;96017.19;5106263;28;20254;-78
2022/01/19 00:20:48;;;;;;;10.30;5.40;;;;;;;-1.79;76.71;96018.69;5110797;27;20208;-78
2022/01/19 00:23:19;;;;;;;11.07;5.40;;;;;;;-1.78;76.82;96011.88;5110384;28;20246;-77
2022/01/19 00:25:48;;;;;;;10.43;4.90;;;;;;;-1.80;76.44;96027.28;5111422;28;20208;-78
2022/01/19 00:28:18;;;;;;;10.73;5.37;;;;;;;-1.81;76.55;96035.00;5110517;28;20299;-77
2022/01/19 00:30:47;;;;;;;12.57;5.20;;;;;;;-1.80;76.55;96034.09;5111859;28;20204;-79
2022/01/19 00:33:19;;;;;;;13.93;5.30;;;;;;;-1.78;76.45;96040.72;5110591;28;20208;-78
2022/01/19 00:35:48;;;;;;;14.83;5.90;;;;;;;-1.76;76.51;96045.72;5111080;28;20602;-77
2022/01/19 00:38:18;;;;;;;10.53;5.13;;;;;;;-1.86;76.70;96027.72;5110966;28;20214;-77
2022/01/19 00:40:47;;;;;;;16.40;5.10;;;;;;;-1.90;76.98;96036.47;5110778;28;20204;-78
2022/01/19 00:43:16;;;;;;;12.23;5.63;;;;;;;-1.92;77.08;96038.31;5111373;28;20208;-77
2022/01/19 00:45:45;;;;;;;11.23;5.63;;;;;;;-1.94;77.33;96039.38;5110613;27;20254;-78
2022/01/19 00:48:14;;;;;;;12.03;5.63;;;;;;;-1.92;77.71;96040.88;5108739;28;20265;-77
2022/01/19 00:50:43;;;;;;;10.30;5.30;;;;;;;-1.91;77.65;96039.16;5109849;28;20200;-77
2022/01/19 00:53:12;;;;;;;14.43;6.27;;;;;;;-1.87;77.55;96048.19;5110316;28;20690;-78
2022/01/19 00:55:41;;;;;;;17.87;6.00;;;;;;;-1.86;77.93;96053.19;5111059;28;20228;-78
2022/01/19 00:58:09;;;;;;;17.00;7.10;;;;;;;-1.88;77.96;96074.59;5109933;27;20204;-78
2022/01/19 01:00:36;;;;;;;15.80;7.47;;;;;;;-1.87;78.31;96073.66;5109717;28;20207;-77
2022/01/19 01:03:05;;;;;;;13.17;7.27;;;;;;;-1.90;78.54;96061.13;5110125;28;20218;-77
2022/01/19 01:05:34;;;;;;;17.17;6.80;;;;;;;-1.99;78.90;96067.69;5104355;28;20261;-77
2022/01/19 01:08:02;;;;;;;16.37;6.83;;;;;;;-1.97;78.94;96055.69;5110127;28;20200;-78
2022/01/19 01:10:30;;;;;;;17.17;7.00;;;;;;;-2.04;79.13;96061.28;5106892;28;20204;-77
2022/01/19 01:13:17;;;;;;;15.77;7.03;;;;;;;-1.95;78.93;96075.94;5109946;28;20250;-78
2022/01/19 01:15:59;;;;;;;11.67;6.10;;;;;;;-1.95;78.79;96071.66;5110670;28;20242;-76
2022/01/19 01:18:28;;;;;;;11.33;6.30;;;;;;;-1.99;78.83;96065.13;5110765;28;20221;-78
2022/01/19 01:20:59;;;;;;;21.80;6.20;;;;;;;-2.01;79.31;96058.53;5104831;28;20229;-77
2022/01/19 01:23:29;;;;;;;11.50;5.80;;;;;;;-2.00;79.32;96060.97;5103054;28;20200;-77
2022/01/19 01:25:58;;;;;;;14.00;5.93;;;;;;;-2.00;78.88;96058.44;5106976;28;20203;-77
2022/01/19 01:28:28;;;;;;;13.67;6.10;;;;;;;-2.02;79.48;96057.69;5109502;28;20208;-77
2022/01/19 01:30:59;;;;;;;15.30;6.13;;;;;;;-2.04;79.63;96043.44;5106085;28;20215;-77
2022/01/19 01:33:28;;;;;;;10.40;5.50;;;;;;;-2.12;79.39;96023.63;5103661;28;20688;-77
2022/01/19 01:35:56;;;;;;;13.67;7.13;;;;;;;-2.08;79.85;96047.16;5108531;28;20208;-77
2022/01/19 01:38:24;;;;;;;19.43;6.57;;;;;;;-2.14;79.82;96045.03;5109901;28;20200;-77
2022/01/19 01:40:52;;;;;;;16.53;6.70;;;;;;;-2.18;80.54;96044.41;5109710;28;20207;-76
2022/01/19 01:43:20;;;;;;;18.87;6.97;;;;;;;-2.31;81.15;96039.34;5110290;28;20196;-77
2022/01/19 01:45:54;;;;;;;21.23;8.10;;;;;;;-2.41;81.92;96040.09;5109866;27;20236;-78
2022/01/19 01:48:25;;;;;;;17.53;8.27;;;;;;;-2.45;82.21;96034.41;5096690;28;20238;-78
2022/01/19 01:53:50;;;;;;;18.43;8.00;;;;;;;-2.50;82.16;96026.28;5044126;28;20202;-78
2022/01/19 01:56:18;;;;;;;17.40;7.47;;;;;;;-2.49;81.98;96022.00;5091120;28;20219;-78
2022/01/19 01:58:49;;;;;;;18.23;7.60;;;;;;;-2.54;82.54;96018.97;5106005;28;20760;-79
2022/01/19 02:01:19;;;;;;;13.50;6.87;;;;;;;-2.56;82.30;96013.97;5101040;28;21017;-79
2022/01/19 02:03:48;;;;;;;12.83;6.50;;;;;;;-2.62;82.84;96013.56;5110177;28;20291;-80
2022/01/19 02:06:31;;;;;;;15.27;7.13;;;;;;;-2.55;82.25;96002.06;5098849;28;20304;-79
2022/01/19 02:09:08;;;;;;;15.23;5.83;;;;;;;-2.51;81.58;95993.31;5109965;28;20199;-79
2022/01/19 02:23:07;;;;;;;16.97;8.00;;;;;;;-2.55;81.93;95980.00;5103236;28;20272;-78
2022/01/19 02:25:40;;;;;;;17.07;7.87;;;;;;;-2.52;81.50;95987.41;5097142;28;20706;-78
2022/01/19 02:41:58;;;;;;;11.77;5.77;;;;;;;-2.46;79.82;95979.34;5109266;28;20253;-77
2022/01/19 02:49:59;;;;;;;13.20;6.23;;;;;;;-2.44;79.83;95989.41;5109886;28;20237;-77
2022/01/19 02:52:29;;;;;;;13.00;6.50;;;;;;;-2.45;79.81;95982.69;5108734;28;20227;-78
2022/01/19 02:54:58;;;;;;;16.50;7.50;;;;;;;-2.52;79.79;95977.22;5102326;28;20374;-79
2022/01/19 02:57:27;;;;;;;13.13;7.03;;;;;;;-2.51;80.23;95983.13;5103092;28;20201;-79
2022/01/19 03:11:02;;;;;;;11.33;6.00;;;;;;;-2.53;79.79;95992.59;5101428;28;20204;-79
2022/01/19 03:13:30;;;;;;;12.50;6.47;;;;;;;-2.58;80.39;95992.91;5102987;28;20224;-79
2022/01/19 03:15:59;;;;;;;12.93;6.17;;;;;;;-2.56;79.72;95980.06;5104171;28;20212;-79
2022/01/19 03:18:29;;;;;;;10.83;5.17;;;;;;;-2.61;79.64;95980.41;5110085;28;20215;-79
2022/01/19 03:20:59;;;;;;;15.77;6.53;;;;;;;-2.56;79.57;95975.81;5108409;28;20559;-79
2022/01/19 03:23:30;;;;;;;11.53;5.83;;;;;;;-2.57;80.11;95981.81;5109468;28;20227;-79
2022/01/19 03:25:58;;;;;;;14.93;7.17;;;;;;;-2.67;80.81;95975.72;5103906;28;20200;-80
2022/01/19 03:28:27;;;;;;;15.80;7.80;;;;;;;-2.55;79.63;95989.34;5098487;28;20232;-80
2022/01/19 03:30:57;;;;;;;14.77;7.60;;;;;;;-2.64;80.17;95980.63;5108039;28;20287;-80
2022/01/19 03:33:25;;;;;;;18.57;8.10;;;;;;;-2.58;80.17;95992.09;5108408;28;20312;-78
2022/01/19 03:35:54;;;;;;;15.97;7.83;;;;;;;-2.55;80.43;95999.53;5102726;28;20282;-79
2022/01/19 03:38:24;;;;;;;10.47;5.67;;;;;;;-2.50;79.30;96003.38;5108592;28;20230;-79
2022/01/19 03:40:54;;;;;;;12.87;5.97;;;;;;;-2.48;79.36;96011.72;5108737;28;20207;-79
2022/01/19 03:43:23;;;;;;;14.83;6.00;;;;;;;-2.55;79.02;95992.72;5109048;28;20215;-78
2022/01/19 03:45:57;;;;;;;9.90;5.50;;;;;;;-2.41;78.61;96005.28;5102854;28;20611;-77
2022/01/19 03:48:37;;;;;;;12.67;6.40;;;;;;;-2.42;78.46;96005.38;5101646;28;20196;-77
2022/01/19 03:51:06;;;;;;;12.63;6.00;;;;;;;-2.40;78.38;96001.03;5107988;28;20233;-77
2022/01/19 03:53:34;;;;;;;16.13;7.20;;;;;;;-2.44;78.22;95997.03;5108172;28;20220;-79
2022/01/19 03:56:05;;;;;;;17.23;7.30;;;;;;;-2.43;78.29;95994.41;5107827;28;20228;-77
2022/01/19 03:58:35;;;;;;;17.67;7.80;;;;;;;-2.43;78.12;95996.13;5109019;28;20200;-77
2022/01/19 04:01:04;;;;;;;16.63;8.67;;;;;;;-2.44;78.39;95992.78;5111821;28;20979;-80
2022/01/19 04:03:50;;;;;;;16.23;8.37;;;;;;;-2.43;77.99;96004.59;5112063;28;21186;-78
2022/01/19 04:06:23;;;;;;;18.40;7.30;;;;;;;-2.41;77.74;96005.28;5112323;28;20206;-78
2022/01/19 04:08:54;;;;;;;15.80;7.23;;;;;;;-2.45;77.88;95996.22;5111334;28;20200;-78
2022/01/19 04:11:25;;;;;;;15.53;7.60;;;;;;;-2.41;77.84;96005.28;5110835;28;20204;-79
2022/01/19 04:14:21;;;;;;;16.20;7.70;;;;;;;-2.35;77.23;96009.13;5104826;28;20227;-79
2022/01/19 04:16:49;;;;;;;24.40;8.70;;;;;;;-2.39;77.08;96011.06;5111533;28;20215;-76
2022/01/19 04:22:04;;;;;;;17.70;8.23;;;;;;;-2.36;77.19;96021.03;5103385;28;20203;-71
2022/01/19 04:24:34;;;;;;;17.83;8.60;;;;;;;-2.37;76.40;96021.97;5111856;28;20196;-72
2022/01/19 04:29:56;;;;;;;22.33;9.23;;;;;;;-2.37;76.81;96033.91;5111644;28;20245;-71
2022/01/19 04:32:29;;;;;;;22.00;9.50;;;;;;;-2.34;76.71;96036.22;5111101;28;20215;-71
2022/01/19 04:34:59;;;;;;;19.50;10.57;;;;;;;-2.38;76.66;96035.63;5110562;28;20200;-71
2022/01/19 04:37:40;;;;;;;19.60;10.43;;;;;;;-2.42;77.02;96036.72;5111981;28;20599;-70
2022/01/19 04:49:06;;;;;;;29.93;14.73;;;;;;;-2.32;76.19;96050.47;5044035;28;20210;-71
2022/01/19 05:03:05;;;;;;;37.90;19.10;;;;;;;-2.39;76.73;96061.97;5110598;28;20191;-72
2022/01/19 05:05:42;;;;;;;35.47;17.57;;;;;;;-2.39;76.40;96064.53;5108032;28;20228;-72
2022/01/19 05:08:16;;;;;;;34.77;17.57;;;;;;;-2.40;76.96;96062.09;5106298;28;20282;-72
2022/01/19 05:13:35;;;;;;;28.47;13.07;;;;;;;-2.34;75.57;96054.03;5103174;28;21062;-71
2022/01/19 05:16:06;;;;;;;34.03;15.50;;;;;;;-2.30;75.99;96058.00;5104119;28;20681;-72
2022/01/19 05:18:33;;;;;;;27.77;13.07;;;;;;;-2.33;75.99;96059.00;5105757;28;20223;-73
2022/01/19 05:21:00;;;;;;;27.63;14.10;;;;;;;-2.33;76.05;96059.00;5098846;28;21004;-72
2022/01/19 05:23:28;;;;;;;30.00;13.77;;;;;;;-2.34;75.88;96072.66;5106986;28;20204;-70
2022/01/19 05:25:55;;;;;;;25.73;11.23;;;;;;;-2.36;75.96;96063.50;5103033;28;20321;-72
2022/01/19 05:28:22;;;;;;;22.47;9.57;;;;;;;-2.35;76.30;96075.31;5108181;28;20701;-71
2022/01/19 05:30:50;;;;;;;26.23;12.57;;;;;;;-2.37;76.24;96077.94;5085013;28;20224;-74
2022/01/19 05:33:20;;;;;;;28.53;12.80;;;;;;;-2.48;76.53;96054.97;5105793;28;20624;-71
2022/01/19 05:35:49;;;;;;;36.47;16.50;;;;;;;-2.31;76.67;96086.91;5100431;28;21016;-72
2022/01/19 05:38:17;;;;;;;35.83;15.43;;;;;;;-2.33;76.25;96073.47;5099659;28;20201;-78
2022/01/19 05:40:46;;;;;;;19.80;10.73;;;;;;;-2.30;76.73;96088.53;5102707;28;20711;-70
2022/01/19 05:43:13;;;;;;;27.67;12.70;;;;;;;-2.32;76.77;96086.09;5106273;28;20269;-71
2022/01/19 05:45:43;;;;;;;27.07;12.97;;;;;;;-2.33;76.88;96096.38;5107430;28;20210;-72
2022/01/19 05:48:11;;;;;;;22.90;11.77;;;;;;;-2.37;77.38;96102.59;5090659;28;20200;-71
2022/01/19 05:50:40;;;;;;;27.53;13.33;;;;;;;-2.41;77.93;96109.63;5107989;28;20520;-72
2022/01/19 05:53:07;;;;;;;30.10;15.63;;;;;;;-2.40;78.07;96111.25;5105677;28;20219;-72
2022/01/19 05:55:34;;;;;;;35.73;14.63;;;;;;;-2.40;78.41;96118.91;5105386;28;20232;-72
2022/01/19 05:58:02;;;;;;;26.50;13.67;;;;;;;-2.44;78.71;96112.38;5106748;28;20200;-71
2022/01/19 06:00:31;;;;;;;24.13;13.03;;;;;;;-2.43;79.22;96124.19;5105932;28;20214;-71
2022/01/19 06:03:00;;;;;;;31.63;14.03;;;;;;;-2.35;79.42;96121.13;5103301;28;20220;-71
2022/01/19 06:05:28;;;;;;;37.37;16.10;;;;;;;-2.38;79.67;96116.25;5106677;28;20216;-71
2022/01/19 06:08:12;;;;;;;31.60;14.50;;;;;;;-2.38;79.87;96121.31;5102638;28;20253;-70
2022/01/19 06:10:44;;;;;;;37.53;16.17;;;;;;;-2.37;80.53;96120.41;5090115;28;21026;-71
2022/01/19 06:13:13;;;;;;;25.33;12.47;;;;;;;-2.34;81.14;96117.66;5100413;28;20212;-72
2022/01/19 06:15:42;;;;;;;31.53;14.17;;;;;;;-2.36;81.14;96120.31;5106420;28;20204;-71
2022/01/19 06:18:11;;;;;;;38.20;16.00;;;;;;;-2.41;81.57;96122.34;5099159;28;20192;-72
2022/01/19 06:20:42;;;;;;;29.00;14.23;;;;;;;-2.42;82.21;96130.88;5100900;28;20211;-80
2022/01/19 06:23:13;;;;;;;33.30;17.13;;;;;;;-2.44;81.95;96116.66;5081197;28;20235;-71
2022/01/19 06:25:41;;;;;;;44.97;19.33;;;;;;;-2.35;82.08;96132.13;5083726;28;20185;-71
2022/01/19 06:28:09;;;;;;;45.63;20.40;;;;;;;-2.35;82.01;96136.41;5096304;28;20196;-72
2022/01/19 06:30:38;;;;;;;35.97;15.60;;;;;;;-2.33;82.02;96137.09;5097923;28;20200;-71
2022/01/19 06:33:07;;;;;;;33.87;16.40;;;;;;;-2.34;82.17;96136.28;5105623;28;20231;-71
2022/01/19 06:35:35;;;;;;;33.17;15.00;;;;;;;-2.34;82.65;96130.41;5107248;28;20204;-71
2022/01/19 06:38:04;;;;;;;37.70;16.97;;;;;;;-2.28;82.61;96131.72;5109449;28;20203;-71
2022/01/19 06:40:35;;;;;;;39.53;17.03;;;;;;;-2.31;82.73;96132.75;5109327;28;20264;-70
2022/01/19 06:43:04;;;;;;;40.77;17.70;;;;;;;-2.31;82.62;96122.56;5108717;28;20202;-70
2022/01/19 06:45:33;;;;;;;31.50;14.03;;;;;;;-2.18;82.34;96136.06;5109065;28;20204;-72
2022/01/19 06:48:02;;;;;;;29.87;14.20;;;;;;;-2.14;82.37;96149.41;5109210;28;20283;-70
2022/01/19 06:50:32;;;;;;;34.70;15.43;;;;;;;-2.20;82.57;96153.19;5109804;28;20207;-70
2022/01/19 06:53:00;;;;;;;36.70;14.20;;;;;;;-2.12;82.91;96150.13;5108726;28;20257;-70
2022/01/19 06:55:29;;;;;;;34.73;16.30;;;;;;;-2.13;83.59;96143.38;5108783;28;20240;-70
2022/01/19 06:58:01;;;;;;;40.77;17.53;;;;;;;-2.03;83.46;96144.41;5109071;28;20697;-71
2022/01/19 07:00:28;;;;;;;36.10;16.27;;;;;;;-2.01;83.75;96145.91;5109728;28;20204;-70
2022/01/19 07:02:58;;;;;;;35.30;16.20;;;;;;;-2.05;84.36;96136.84;5108856;28;20286;-71
2022/01/19 07:05:27;;;;;;;39.67;16.00;;;;;;;-2.01;85.18;96134.91;5108833;28;20200;-71
2022/01/19 07:07:57;;;;;;;37.40;17.50;;;;;;;-2.02;86.53;96134.09;5109105;28;20204;-70
2022/01/19 07:10:25;;;;;;;28.77;12.10;;;;;;;-1.88;86.59;96135.72;5109117;28;20208;-70
2022/01/19 07:12:55;;;;;;;34.43;15.40;;;;;;;-1.86;86.37;96132.13;5109407;28;20235;-72
2022/01/19 07:15:25;;;;;;;28.97;12.17;;;;;;;-1.84;86.35;96127.75;5105276;28;20199;-72
2022/01/19 07:17:54;;;;;;;25.70;10.50;;;;;;;-1.76;85.72;96117.84;5105910;28;20199;-72
2022/01/19 07:20:22;;;;;;;27.63;12.33;;;;;;;-1.74;85.90;96107.56;5108961;28;20200;-71
2022/01/19 07:22:50;;;;;;;24.70;11.33;;;;;;;-1.78;85.67;96104.41;5108612;28;21017;-71
2022/01/19 07:25:19;;;;;;;27.83;11.63;;;;;;;-1.76;85.88;96107.63;5109534;28;20210;-71
2022/01/19 07:27:49;;;;;;;21.87;11.13;;;;;;;-1.72;85.51;96108.25;5109044;28;20200;-71
2022/01/19 07:30:22;;;;;;;24.93;10.30;;;;;;;-1.63;84.42;96110.16;5108971;28;20257;-71
2022/01/19 07:32:52;;;;;;;22.20;9.87;;;;;;;-1.68;84.49;96112.22;5109564;28;20249;-71
2022/01/19 07:35:21;;;;;;;27.87;11.63;;;;;;;-1.66;85.06;96114.66;5113269;28;20294;-71
2022/01/19 07:37:50;;;;;;;20.13;10.73;;;;;;;-1.57;84.44;96109.72;5113274;28;20291;-71
2022/01/19 07:40:18;;;;;;;23.57;11.33;;;;;;;-1.55;84.58;96110.41;5112832;28;20207;-72
2022/01/19 07:42:48;;;;;;;22.00;9.63;;;;;;;-1.56;83.81;96096.06;5112098;28;20290;-72
2022/01/19 07:45:17;;;;;;;22.77;8.03;;;;;;;-1.49;83.58;96097.25;5112580;28;20697;-72
2022/01/19 07:47:46;;;;;;;20.67;9.53;;;;;;;-1.51;83.77;96105.94;5113126;28;20204;-72
2022/01/19 07:50:21;;;;;;;30.10;10.13;;;;;;;-1.57;84.28;96099.53;5113164;28;20212;-73
2022/01/19 07:52:49;;;;;;;15.97;7.67;;;;;;;-1.47;83.70;96104.81;5112127;28;20203;-76
2022/01/19 07:55:18;;;;;;;20.90;8.67;;;;;;;-1.35;83.04;96104.72;5113350;28;20289;-81
2022/01/19 07:57:50;;;;;;;19.13;9.33;;;;;;;-1.20;82.34;96108.72;5101988;28;20222;-80
2022/01/19 08:00:20;;;;;;;29.10;11.03;;;;;;;-1.15;81.93;96110.94;5111601;28;20253;-81
2022/01/19 08:02:49;;;;;;;23.23;9.77;;;;;;;-1.19;82.38;96096.81;5113778;28;20207;-81
2022/01/19 08:05:19;;;;;;;20.83;8.67;;;;;;;-1.15;82.18;96105.84;5104465;28;20275;-81
2022/01/19 08:07:47;;;;;;;26.20;8.60;;;;;;;-1.19;81.57;96110.38;5105336;28;20196;-81
2022/01/19 08:10:16;;;;;;;19.67;9.50;;;;;;;-1.14;82.04;96110.03;5102672;28;20193;-81
2022/01/19 08:12:45;;;;;;;20.93;8.90;;;;;;;-1.07;81.29;96113.78;5106115;28;20192;-82
2022/01/19 08:15:13;;;;;;;27.00;9.43;;;;;;;-1.04;80.83;96107.63;5105884;28;20222;-82
2022/01/19 08:17:43;;;;;;;21.13;9.40;;;;;;;-0.92;80.41;96101.63;5107807;28;20201;-81
2022/01/19 08:20:13;;;;;;;18.40;8.70;;;;;;;-0.77;77.80;96113.25;5110666;28;20203;-82
2022/01/19 08:22:44;;;;;;;24.67;9.43;;;;;;;-0.69;77.09;96118.59;5113317;28;20207;-82
2022/01/19 08:25:13;;;;;;;16.77;8.87;;;;;;;-0.57;75.44;96122.81;5105798;28;20762;-81
2022/01/19 08:27:41;;;;;;;23.50;8.47;;;;;;;-0.57;74.98;96113.41;5097749;28;20204;-82
2022/01/19 08:30:12;;;;;;;16.47;8.47;;;;;;;-0.59;75.19;96117.81;5109600;28;20196;-84
2022/01/19 08:32:39;;;;;;;19.07;9.07;;;;;;;-0.59;74.97;96119.56;5107367;28;20200;-84
2022/01/19 08:35:10;;;;;;;19.57;8.07;;;;;;;-0.40;73.77;96116.44;5113242;28;20231;-83
2022/01/19 08:37:38;;;;;;;17.93;7.83;;;;;;;-0.53;73.79;96113.19;5109841;28;20279;-84
2022/01/19 08:40:09;;;;;;;17.40;8.43;;;;;;;-0.44;73.80;96115.06;5109166;28;20307;-86
2022/01/19 08:42:37;;;;;;;13.13;7.27;;;;;;;-0.34;72.75;96111.69;5105925;28;20708;-86
2022/01/19 08:45:07;;;;;;;25.77;10.87;;;;;;;-0.34;73.12;96104.03;5098632;28;20234;-83
2022/01/19 08:47:37;;;;;;;23.97;10.53;;;;;;;-0.32;73.87;96094.53;5098717;28;20574;-83
2022/01/19 08:50:05;;;;;;;22.40;9.00;;;;;;;-0.23;73.33;96101.47;5095175;28;20308;-83
2022/01/19 08:52:32;;;;;;;20.30;8.47;;;;;;;-0.23;72.61;96082.81;5098305;28;20258;-82
2022/01/19 08:55:00;;;;;;;17.90;8.43;;;;;;;-0.17;72.13;96090.78;5095006;28;20243;-83
2022/01/19 08:57:29;;;;;;;14.87;7.00;;;;;;;-0.18;71.34;96094.28;5106445;28;20639;-83
2022/01/19 08:59:57;;;;;;;18.83;6.77;;;;;;;-0.10;71.19;96098.81;5106588;27;20689;-83
2022/01/19 09:02:25;;;;;;;19.33;8.30;;;;;;;-0.05;70.91;96086.50;5107214;28;20682;-84
2022/01/19 09:04:52;;;;;;;16.57;7.53;;;;;;;-0.06;70.06;96097.66;5100387;27;20200;-83
2022/01/19 09:07:20;;;;;;;20.20;9.10;;;;;;;0.03;69.74;96093.59;5104656;28;20211;-84
2022/01/19 09:09:47;;;;;;;26.00;10.87;;;;;;;0.12;68.78;96093.66;5102011;28;20200;-83
2022/01/19 09:12:15;;;;;;;20.10;8.60;;;;;;;0.04;68.62;96097.75;5099909;28;20746;-84
2022/01/19 09:14:45;;;;;;;17.67;7.33;;;;;;;0.03;68.38;96079.03;5107531;28;20216;-83
2022/01/19 09:17:15;;;;;;;15.07;6.83;;;;;;;0.02;67.87;96064.66;5121839;28;20200;-84
2022/01/19 09:19:43;;;;;;;18.27;9.03;;;;;;;0.06;68.55;96080.56;5118837;28;20203;-83
2022/01/19 09:22:12;;;;;;;22.67;9.60;;;;;;;0.13;68.59;96082.53;5113100;28;20206;-82
2022/01/19 09:24:44;;;;;;;17.00;9.73;;;;;;;0.24;67.57;96074.84;5112594;28;20204;-82
2022/01/19 09:27:13;;;;;;;16.67;8.30;;;;;;;0.22;67.27;96060.56;5112894;28;20223;-82
2022/01/19 09:29:42;;;;;;;16.57;8.00;;;;;;;0.49;67.07;96071.19;5102630;28;20196;-83
2022/01/19 09:32:14;;;;;;;21.30;8.87;;;;;;;0.55;67.23;96057.88;5109698;28;20226;-84
2022/01/19 09:34:48;;;;;;;22.93;10.93;;;;;;;0.66;66.58;96057.84;5108320;28;20231;-84
2022/01/19 09:37:20;;;;;;;16.70;8.40;;;;;;;0.61;65.89;96036.16;5111108;28;20196;-83
2022/01/19 09:39:47;;;;;;;20.00;8.57;;;;;;;0.81;66.35;96060.94;5107368;28;20289;-83
2022/01/19 09:42:15;;;;;;;14.87;6.93;;;;;;;0.88;64.86;96069.72;5093287;28;20291;-86
2022/01/19 09:44:42;;;;;;;13.17;6.90;;;;;;;0.84;65.16;96051.25;5106034;28;20284;-88
2022/01/19 09:47:11;;;;;;;13.97;6.83;;;;;;;0.80;65.22;96049.06;5103471;28;20201;-84
2022/01/19 09:49:38;;;;;;;16.47;8.47;;;;;;;0.89;64.75;96036.34;5106829;28;20220;-86
2022/01/19 09:52:06;;;;;;;19.73;8.80;;;;;;;1.19;64.30;96047.56;5092669;28;20205;-84
2022/01/19 09:54:33;;;;;;;25.40;9.30;;;;;;;1.13;63.61;96043.75;5104957;28;20302;-85
2022/01/19 09:57:00;;;;;;;15.03;8.13;;;;;;;1.28;63.95;96049.34;5107062;28;20202;-83
2022/01/19 09:59:27;;;;;;;14.50;7.00;;;;;;;1.27;63.17;96050.31;5114802;28;20233;-83
2022/01/19 10:01:57;;;;;;;15.23;8.40;;;;;;;1.30;62.85;96044.94;5112429;28;20278;-83
2022/01/19 10:04:28;;;;;;;15.13;7.97;;;;;;;1.51;62.63;96046.53;5113164;28;20289;-82
2022/01/19 10:07:13;;;;;;;22.43;10.53;;;;;;;1.98;61.69;96028.88;5112418;28;20257;-82
2022/01/19 10:09:57;;;;;;;16.13;8.90;;;;;;;3.45;57.43;96026.81;5103590;28;20584;-81
2022/01/19 10:18:14;;;;;;;21.40;9.07;;;;;;;7.81;46.74;96029.94;5107966;28;20275;-82
2022/01/19 10:20:45;;;;;;;22.60;9.90;;;;;;;9.08;42.82;96026.00;5099056;28;20293;-82
2022/01/19 10:23:36;;;;;;;14.07;7.90;;;;;;;9.28;42.47;96015.13;5103850;28;20276;-86
2022/01/19 10:26:07;;;;;;;13.27;7.83;;;;;;;10.15;41.12;96027.38;5111871;28;20253;-84
2022/01/19 10:28:56;;;;;;;11.60;6.37;;;;;;;10.97;39.43;96035.66;5103942;28;20203;-83
2022/01/19 10:31:25;;;;;;;15.30;7.70;;;;;;;10.96;37.46;96018.47;5103340;28;20280;-83
2022/01/19 10:34:12;;;;;;;18.60;7.73;;;;;;;10.05;39.19;96024.22;5110027;28;20623;-84
2022/01/19 10:36:48;;;;;;;19.17;8.47;;;;;;;10.11;39.48;96028.69;5097703;28;20265;-84
2022/01/19 10:39:17;;;;;;;13.90;6.47;;;;;;;11.09;37.96;96034.19;5109357;28;20679;-83
2022/01/19 10:42:05;;;;;;;14.47;7.17;;;;;;;11.54;36.03;96035.56;5099899;28;20208;-83
2022/01/19 10:44:35;;;;;;;12.43;7.17;;;;;;;11.72;35.50;96010.66;5109506;28;20200;-82
2022/01/19 10:47:04;;;;;;;12.37;6.07;;;;;;;11.55;35.23;96011.13;5108304;28;20231;-84
2022/01/19 10:49:47;;;;;;;14.50;5.50;;;;;;;11.88;34.68;96002.56;5097316;28;20402;-83
2022/01/19 10:52:33;;;;;;;15.80;6.10;;;;;;;11.76;34.85;95995.47;5102864;28;20213;-83
2022/01/19 10:55:05;;;;;;;15.40;6.43;;;;;;;12.22;34.35;95985.25;5104880;28;20236;-82
2022/01/19 10:57:35;;;;;;;14.53;7.33;;;;;;;12.62;33.63;95994.00;5090932;28;20209;-83
2022/01/19 11:00:14;;;;;;;18.37;10.17;;;;;;;11.48;35.00;95973.84;5104184;28;20280;-82
2022/01/19 11:02:43;;;;;;;19.17;7.67;;;;;;;11.51;34.63;95971.66;5104076;28;20200;-82
2022/01/19 11:05:10;;;;;;;15.93;7.03;;;;;;;11.91;34.82;95973.53;5109659;28;20203;-85
2022/01/19 11:07:38;;;;;;;14.07;7.30;;;;;;;11.66;34.62;95953.31;5103721;28;20209;-83
2022/01/19 11:10:13;;;;;;;10.43;7.33;;;;;;;11.44;34.76;95963.00;5111194;28;20236;-82
2022/01/19 11:12:45;;;;;;;16.73;8.07;;;;;;;11.59;35.28;95944.66;5104473;28;20200;-81
2022/01/19 11:15:15;;;;;;;15.67;7.07;;;;;;;11.68;34.48;95946.09;5103679;28;20299;-84
2022/01/19 11:17:43;;;;;;;13.97;7.30;;;;;;;11.77;34.44;95945.00;5106981;28;20203;-84
2022/01/19 11:20:15;;;;;;;18.33;8.50;;;;;;;12.07;34.45;95940.28;5110421;28;20836;-81
2022/01/19 11:23:18;;;;;;;21.00;9.27;;;;;;;11.38;34.47;95937.72;5097163;28;20687;-84
2022/01/19 11:25:56;;;;;;;13.87;7.77;;;;;;;12.17;34.03;95931.13;5103723;28;20238;-81
2022/01/19 11:28:33;;;;;;;17.10;7.80;;;;;;;12.06;33.59;95923.06;5104653;28;20211;-81
2022/01/19 11:31:05;;;;;;;12.07;7.30;;;;;;;12.44;33.64;95929.38;5110714;28;20222;-84
2022/01/19 11:33:41;;;;;;;15.03;8.10;;;;;;;13.05;32.78;95938.66;5111028;28;20750;-82
2022/01/19 11:36:22;;;;;;;14.30;7.57;;;;;;;13.74;31.77;95940.78;5107221;28;20228;-82
2022/01/19 11:38:53;;;;;;;19.60;10.13;;;;;;;13.78;30.80;95941.19;5109297;28;20590;-82
2022/01/19 11:41:41;;;;;;;20.97;10.77;;;;;;;13.74;31.11;95930.34;5111139;28;20587;-83
2022/01/19 11:44:12;;;;;;;18.30;7.80;;;;;;;13.22;30.99;95920.81;5111043;28;20208;-82
2022/01/19 11:46:43;;;;;;;11.80;6.57;;;;;;;13.14;31.76;95917.59;5103152;28;20286;-83
2022/01/19 11:49:14;;;;;;;15.03;6.43;;;;;;;13.24;31.30;95918.00;5094767;28;20207;-84
2022/01/19 11:51:43;;;;;;;11.67;6.67;;;;;;;13.56;31.09;95922.38;5107874;28;20236;-81
2022/01/19 11:54:22;;;;;;;11.77;6.10;;;;;;;13.25;31.18;95899.53;5110485;28;20200;-83
2022/01/19 11:57:15;;;;;;;15.17;6.07;;;;;;;13.64;30.75;95912.50;5110765;28;20204;-82
2022/01/19 12:00:19;;;;;;;10.03;6.10;;;;;;;13.34;30.99;95907.94;5092188;28;20200;-82
2022/01/19 12:02:56;;;;;;;16.30;7.20;;;;;;;13.36;31.41;95893.66;5103718;28;20200;-81
2022/01/19 12:05:30;;;;;;;12.43;7.27;;;;;;;13.87;30.22;95900.75;5091185;28;20270;-81
2022/01/19 12:08:01;;;;;;;16.67;7.10;;;;;;;13.75;30.46;95897.19;5110863;28;20287;-83
2022/01/19 12:10:50;;;;;;;14.10;7.07;;;;;;;13.61;30.93;95905.06;5104264;28;20284;-83
2022/01/19 12:13:34;;;;;;;12.57;6.30;;;;;;;13.21;30.89;95882.66;5097158;28;20196;-83
2022/01/19 12:16:07;;;;;;;16.07;6.30;;;;;;;12.59;31.96;95892.69;5106271;28;20595;-83
2022/01/19 12:18:40;;;;;;;16.47;7.03;;;;;;;12.89;32.14;95875.66;5114629;28;20230;-85
2022/01/19 12:21:10;;;;;;;14.60;6.70;;;;;;;13.20;31.83;95878.44;5109212;28;20682;-82
2022/01/19 12:23:39;;;;;;;15.97;7.40;;;;;;;14.02;31.13;95883.00;5113332;28;20671;-83
2022/01/19 12:26:10;;;;;;;17.10;8.90;;;;;;;14.12;30.69;95880.72;5114082;28;20223;-83
2022/01/19 12:28:49;;;;;;;24.60;9.27;;;;;;;13.43;31.29;95873.56;5116432;28;20230;-83
2022/01/19 12:31:39;;;;;;;14.17;9.33;;;;;;;13.86;30.76;95881.66;5126508;28;20228;-82
2022/01/19 12:34:21;;;;;;;16.80;7.70;;;;;;;13.87;31.02;95880.66;5115434;28;20200;-84
2022/01/19 12:36:56;;;;;;;12.80;7.03;;;;;;;13.87;31.04;95880.66;5114855;28;20207;-85
2022/01/19 12:39:39;;;;;;;12.47;6.93;;;;;;;13.40;31.66;95876.59;5111176;28;20196;-84
2022/01/19 12:42:13;;;;;;;13.93;6.97;;;;;;;13.80;31.03;95850.31;5101301;28;20196;-84
2022/01/19 12:44:50;;;;;;;14.03;7.33;;;;;;;13.77;31.04;95853.34;5110909;28;20252;-82
2022/01/19 12:47:50;;;;;;;14.00;7.33;;;;;;;13.65;31.07;95861.84;5102815;28;20264;-82
2022/01/19 12:50:37;;;;;;;16.80;8.50;;;;;;;13.92;30.59;95864.34;5094521;28;20303;-83
2022/01/19 12:53:16;;;;;;;15.27;7.40;;;;;;;13.69;31.02;95857.00;5107807;28;20282;-83
2022/01/19 12:55:48;;;;;;;20.10;7.07;;;;;;;13.36;31.76;95846.66;5113116;28;20238;-84
2022/01/19 12:58:24;;;;;;;16.67;7.73;;;;;;;13.08;31.88;95835.69;5100393;28;20662;-83
2022/01/19 13:00:55;;;;;;;16.60;6.73;;;;;;;12.40;32.60;95835.13;5113318;28;20192;-82
2022/01/19 13:03:27;;;;;;;14.53;7.00;;;;;;;12.63;32.61;95823.47;5113532;28;20245;-82